createdAt,value
2019-02-19T00:01:26.049Z,90.20
2019-02-19T00:03:56.571Z,90.60
2019-02-19T00:06:27.283Z,90.40
2019-02-19T00:08:58.316Z,90.40
2019-02-19T00:11:28.852Z,90.40
2019-02-19T00:13:59.394Z,90.30
2019-02-19T00:16:30.044Z,90.10
2019-02-19T00:19:00.613Z,90.10
2019-02-19T00:21:31.196Z,90.60
2019-02-19T00:24:01.831Z,90.40
2019-02-19T00:26:32.455Z,90.50
2019-02-19T00:29:02.996Z,90.40
2019-02-19T00:31:33.593Z,90.40
2019-02-19T00:34:04.196Z,90.40
2019-02-19T00:36:34.812Z,90.40
2019-02-19T00:39:06.232Z,90.60
2019-02-19T00:41:36.946Z,90.40
2019-02-19T00:44:07.814Z,90.20
2019-02-19T00:46:38.758Z,90.20
2019-02-19T00:49:09.314Z,90.10
2019-02-19T00:51:39.956Z,90.30
2019-02-19T00:54:10.505Z,90.40
2019-02-19T00:56:41.071Z,90.40
2019-02-19T00:59:11.702Z,90.40
2019-02-19T01:01:42.299Z,90.50
2019-02-19T01:04:12.870Z,90.60
2019-02-19T01:06:43.535Z,90.60
2019-02-19T01:09:15.208Z,90.60
2019-02-19T01:11:45.741Z,90.60
2019-02-19T01:14:16.255Z,90.80
2019-02-19T01:16:46.900Z,91.00
2019-02-19T01:19:17.508Z,91.00
2019-02-19T01:21:48.053Z,90.90
2019-02-19T01:24:18.577Z,90.90
2019-02-19T01:26:49.216Z,90.80
2019-02-19T01:29:19.838Z,90.70
2019-02-19T01:31:50.448Z,90.50
2019-02-19T01:34:20.980Z,90.40
2019-02-19T01:36:51.625Z,90.60
2019-02-19T01:39:22.184Z,90.80
2019-02-19T01:41:52.768Z,90.80
2019-02-19T01:44:23.445Z,90.90
2019-02-19T01:46:53.990Z,90.80
2019-02-19T01:49:24.640Z,90.80
2019-02-19T01:51:55.312Z,91.00
2019-02-19T01:54:25.980Z,91.00
2019-02-19T01:56:56.590Z,91.00
2019-02-19T01:59:27.155Z,91.10
2019-02-19T02:01:57.747Z,90.90
2019-02-19T02:04:28.327Z,91.00
2019-02-19T02:06:58.867Z,91.00
2019-02-19T02:09:29.451Z,91.10
2019-02-19T02:12:00.492Z,91.10
2019-02-19T02:14:31.420Z,91.40
2019-02-19T02:17:02.376Z,91.20
2019-02-19T02:19:33.302Z,91.00
2019-02-19T02:22:03.923Z,90.90
2019-02-19T02:24:35.484Z,90.90
2019-02-19T02:27:07.455Z,90.80
2019-02-19T02:29:38.081Z,91.00
2019-02-19T02:32:08.710Z,91.10
2019-02-19T02:34:39.373Z,91.00
2019-02-19T02:37:10.099Z,90.80
2019-02-19T02:39:40.600Z,90.80
2019-02-19T02:42:11.180Z,91.00
2019-02-19T02:44:41.808Z,91.00
2019-02-19T02:47:12.408Z,91.00
2019-02-19T02:49:43.037Z,91.00
2019-02-19T02:52:13.671Z,91.10
2019-02-19T02:54:44.213Z,90.90
2019-02-19T02:57:15.065Z,91.10
2019-02-19T02:59:45.979Z,91.10
2019-02-19T03:02:16.947Z,91.10
2019-02-19T03:04:47.982Z,91.20
2019-02-19T03:07:39.929Z,91.20
2019-02-19T03:10:10.851Z,91.30
2019-02-19T03:12:41.464Z,90.90
2019-02-19T03:15:12.641Z,91.10
2019-02-19T03:17:43.714Z,90.80
2019-02-19T03:20:14.801Z,91.10
2019-02-19T03:22:45.383Z,91.10
2019-02-19T03:25:15.941Z,91.00
2019-02-19T03:27:46.601Z,91.10
2019-02-19T03:30:18.162Z,90.80
2019-02-19T03:32:48.834Z,90.90
2019-02-19T03:35:19.440Z,91.10
2019-02-19T03:37:50.061Z,91.30
2019-02-19T03:40:20.614Z,91.40
2019-02-19T03:42:51.140Z,91.40
2019-02-19T03:45:21.843Z,91.50
2019-02-19T03:47:52.482Z,91.50
2019-02-19T03:50:23.117Z,91.70
2019-02-19T03:52:53.743Z,91.60
2019-02-19T03:55:24.338Z,91.50
2019-02-19T03:57:55.145Z,91.30
2019-02-19T04:00:26.866Z,91.40
2019-02-19T04:02:57.452Z,91.70
2019-02-19T04:05:28.029Z,92.20
2019-02-19T04:07:58.698Z,91.90
2019-02-19T04:10:29.259Z,92.00
2019-02-19T04:12:59.938Z,92.10
2019-02-19T04:15:30.833Z,91.70
2019-02-19T04:18:01.432Z,92.10
2019-02-19T04:20:32.052Z,91.90
2019-02-19T04:23:02.751Z,92.20
2019-02-19T04:25:33.320Z,92.00
2019-02-19T04:28:06.635Z,92.10
2019-02-19T04:30:37.195Z,92.00
2019-02-19T04:33:07.793Z,92.40
2019-02-19T04:35:38.385Z,92.40
2019-02-19T04:38:08.928Z,92.50
2019-02-19T04:40:39.457Z,92.50
2019-02-19T04:43:09.965Z,92.50
2019-02-19T04:45:40.549Z,92.50
2019-02-19T04:48:11.253Z,92.20
2019-02-19T04:50:41.823Z,92.20
2019-02-19T04:53:12.439Z,92.30
2019-02-19T04:55:43.023Z,92.30
2019-02-19T04:58:14.739Z,92.10
2019-02-19T05:00:45.256Z,92.30
2019-02-19T05:03:15.835Z,92.30
2019-02-19T05:05:46.456Z,92.10
2019-02-19T05:08:16.994Z,92.20
2019-02-19T05:10:47.511Z,92.40
2019-02-19T05:13:18.044Z,92.30
2019-02-19T05:15:48.565Z,92.20
2019-02-19T05:18:19.155Z,92.40
2019-02-19T05:20:49.765Z,92.40
2019-02-19T05:23:20.328Z,92.60
2019-02-19T05:25:50.896Z,92.70
2019-02-19T05:28:21.490Z,93.20
2019-02-19T05:30:52.117Z,92.80
2019-02-19T05:33:22.751Z,92.80
2019-02-19T05:35:53.315Z,92.70
2019-02-19T05:38:23.917Z,92.90
2019-02-19T05:40:54.412Z,92.90
2019-02-19T05:43:25.405Z,92.70
2019-02-19T05:45:55.904Z,92.80
2019-02-19T05:48:26.536Z,92.80
2019-02-19T05:50:57.034Z,92.70
2019-02-19T05:53:27.563Z,92.70
2019-02-19T05:55:58.136Z,92.70
2019-02-19T05:58:28.766Z,92.80
2019-02-19T06:00:59.293Z,92.80
2019-02-19T06:03:29.829Z,92.80
2019-02-19T06:06:00.349Z,92.90
2019-02-19T06:08:30.941Z,93.10
2019-02-19T06:11:01.448Z,92.90
2019-02-19T06:13:32.048Z,92.80
2019-02-19T06:16:02.540Z,92.70
2019-02-19T06:18:33.217Z,92.60
2019-02-19T06:21:03.809Z,92.60
2019-02-19T06:23:34.441Z,92.60
2019-02-19T06:26:05.013Z,92.50
2019-02-19T06:28:35.648Z,92.70
2019-02-19T06:31:06.177Z,92.60
2019-02-19T06:33:36.720Z,92.70
2019-02-19T06:36:07.264Z,92.70
2019-02-19T06:38:37.798Z,92.90
2019-02-19T06:41:08.403Z,92.60
2019-02-19T06:43:40.106Z,92.70
2019-02-19T06:46:11.817Z,92.80
2019-02-19T06:48:42.448Z,92.70
2019-02-19T06:51:12.998Z,92.60
2019-02-19T06:53:43.507Z,92.50
2019-02-19T06:56:14.153Z,92.50
2019-02-19T06:58:44.701Z,92.50
2019-02-19T07:01:15.915Z,92.60
2019-02-19T07:04:02.661Z,92.50
2019-02-19T07:06:33.364Z,92.40
2019-02-19T07:09:04.923Z,92.50
2019-02-19T07:11:35.446Z,92.30
2019-02-19T07:14:05.982Z,92.20
2019-02-19T07:16:36.608Z,92.20
2019-02-19T07:19:07.240Z,92.30
2019-02-19T07:21:37.762Z,92.10
2019-02-19T07:24:08.423Z,92.10
2019-02-19T07:26:39.036Z,92.20
2019-02-19T07:29:09.571Z,92.00
2019-02-19T07:31:40.156Z,92.20
2019-02-19T07:34:10.839Z,92.10
2019-02-19T07:36:41.421Z,91.90
2019-02-19T07:39:12.007Z,91.90
2019-02-19T07:41:42.508Z,91.80
2019-02-19T07:44:13.020Z,91.70
2019-02-19T07:46:43.516Z,91.60
2019-02-19T07:49:14.146Z,91.60
2019-02-19T07:51:44.809Z,91.60
2019-02-19T07:54:15.392Z,91.40
2019-02-19T07:56:46.027Z,91.40
2019-02-19T07:59:16.653Z,91.30
2019-02-19T08:01:47.192Z,91.30
2019-02-19T08:04:17.809Z,91.40
2019-02-19T08:06:48.340Z,91.40
2019-02-19T08:09:18.890Z,91.40
2019-02-19T08:11:49.512Z,91.50
2019-02-19T08:14:20.071Z,91.40
2019-02-19T08:16:50.730Z,91.40
2019-02-19T08:19:21.289Z,91.20
2019-02-19T08:21:51.782Z,91.10
2019-02-19T08:24:22.378Z,91.10
2019-02-19T08:26:53.000Z,91.20
2019-02-19T08:29:23.515Z,91.10
2019-02-19T08:31:54.061Z,91.10
2019-02-19T08:34:24.694Z,91.00
2019-02-19T08:36:55.324Z,90.80
2019-02-19T08:39:25.842Z,90.50
2019-02-19T08:41:56.353Z,90.40
2019-02-19T08:44:26.965Z,90.50
2019-02-19T08:46:57.553Z,90.40
2019-02-19T08:49:28.056Z,90.50
2019-02-19T08:51:58.713Z,90.40
2019-02-19T08:54:29.250Z,90.30
2019-02-19T08:56:59.758Z,90.30
2019-02-19T08:59:30.339Z,90.40
2019-02-19T09:02:00.898Z,90.20
2019-02-19T09:04:31.423Z,90.00
2019-02-19T09:07:01.949Z,90.00
2019-02-19T09:09:32.557Z,89.80
2019-02-19T09:12:03.158Z,89.80
2019-02-19T09:14:33.712Z,89.40
2019-02-19T09:17:04.295Z,88.70
2019-02-19T09:19:34.855Z,88.80
2019-02-19T09:22:05.692Z,88.90
2019-02-19T09:24:36.333Z,88.80
2019-02-19T09:27:06.856Z,88.90
2019-02-19T09:29:38.616Z,88.90
2019-02-19T09:32:09.248Z,89.00
2019-02-19T09:34:39.877Z,89.50
2019-02-19T09:37:12.780Z,89.10
2019-02-19T09:39:43.315Z,88.60
2019-02-19T09:42:13.813Z,88.60
2019-02-19T09:44:44.325Z,88.90
2019-02-19T09:47:14.856Z,88.20
2019-02-19T09:49:45.520Z,88.10
2019-02-19T09:52:16.068Z,88.10
2019-02-19T09:54:46.698Z,87.50
2019-02-19T09:57:17.228Z,87.90
2019-02-19T09:59:47.761Z,87.80
2019-02-19T10:02:18.385Z,87.60
2019-02-19T10:04:48.895Z,87.40
2019-02-19T10:07:19.505Z,86.90
2019-02-19T10:09:49.992Z,86.30
2019-02-19T10:12:20.605Z,86.30
2019-02-19T10:14:51.164Z,86.90
2019-02-19T10:17:21.764Z,86.50
2019-02-19T10:19:52.410Z,85.60
2019-02-19T10:22:22.996Z,85.50
2019-02-19T10:24:53.517Z,84.90
2019-02-19T10:27:24.103Z,85.10
2019-02-19T10:29:54.653Z,85.10
2019-02-19T10:32:25.518Z,84.10
2019-02-19T10:34:56.097Z,84.20
2019-02-19T10:37:26.621Z,83.60
2019-02-19T10:39:57.136Z,83.60
2019-02-19T10:42:27.722Z,83.20
2019-02-19T10:44:58.316Z,83.00
2019-02-19T10:47:28.811Z,82.80
2019-02-19T10:49:59.365Z,82.60
2019-02-19T10:52:29.848Z,82.70
2019-02-19T10:55:00.436Z,82.80
2019-02-19T10:57:30.928Z,83.60
2019-02-19T11:00:01.498Z,83.10
2019-02-19T11:02:33.256Z,82.40
2019-02-19T11:05:03.787Z,82.50
2019-02-19T11:07:34.368Z,82.00
2019-02-19T11:10:05.587Z,82.20
2019-02-19T11:12:36.059Z,81.80
2019-02-19T11:15:06.912Z,81.30
2019-02-19T11:17:37.500Z,81.20
2019-02-19T11:20:09.669Z,80.80
2019-02-19T11:22:40.179Z,80.90
2019-02-19T11:25:12.048Z,81.80
2019-02-19T11:27:42.665Z,80.60
2019-02-19T11:30:15.548Z,80.10
2019-02-19T11:32:46.084Z,80.20
2019-02-19T11:35:16.600Z,80.30
2019-02-19T11:37:47.168Z,80.30
2019-02-19T11:40:17.714Z,80.40
2019-02-19T11:42:48.320Z,80.40
2019-02-19T11:45:18.939Z,80.50
2019-02-19T11:47:50.764Z,81.70
2019-02-19T11:50:21.344Z,80.80
2019-02-19T11:52:51.960Z,80.80
2019-02-19T11:55:22.507Z,82.10
2019-02-19T11:57:53.129Z,81.30
2019-02-19T12:00:29.649Z,81.00
2019-02-19T12:03:00.155Z,80.90
2019-02-19T12:05:30.688Z,81.00
2019-02-19T12:08:01.299Z,81.00
2019-02-19T12:10:31.917Z,81.00
2019-02-19T12:13:02.407Z,80.80
2019-02-19T12:15:35.209Z,81.10
2019-02-19T12:18:05.156Z,80.80
2019-02-19T12:20:35.792Z,80.70
2019-02-19T12:23:06.364Z,81.20
2019-02-19T12:25:36.886Z,82.00
2019-02-19T12:28:07.475Z,81.30
2019-02-19T12:30:38.128Z,81.30
2019-02-19T12:33:08.740Z,81.50
2019-02-19T12:35:39.369Z,81.60
2019-02-19T12:38:09.956Z,81.60
2019-02-19T12:40:40.535Z,81.50
2019-02-19T12:43:11.136Z,81.40
2019-02-19T12:45:41.693Z,81.60
2019-02-19T12:48:13.373Z,81.50
2019-02-19T12:50:44.123Z,81.30
2019-02-19T12:53:14.572Z,81.50
2019-02-19T12:55:45.171Z,81.60
2019-02-19T12:58:15.786Z,81.90
2019-02-19T13:00:46.342Z,82.10
2019-02-19T13:03:16.948Z,81.90
2019-02-19T13:05:47.584Z,82.30
2019-02-19T13:08:18.128Z,82.10
2019-02-19T13:10:48.768Z,82.30
2019-02-19T13:13:19.397Z,82.30
2019-02-19T13:15:50.016Z,82.40
2019-02-19T13:18:20.608Z,83.20
2019-02-19T13:20:51.275Z,82.50
2019-02-19T13:23:21.799Z,82.50
2019-02-19T13:25:52.463Z,82.70
2019-02-19T13:28:23.007Z,82.60
2019-02-19T13:30:53.521Z,83.00
2019-02-19T13:33:24.025Z,83.10
2019-02-19T13:35:55.577Z,82.80
2019-02-19T13:38:26.175Z,82.80
2019-02-19T13:40:59.208Z,82.80
2019-02-19T13:43:29.812Z,83.00
2019-02-19T13:46:00.399Z,83.00
2019-02-19T13:48:30.972Z,83.00
2019-02-19T13:51:01.562Z,83.10
2019-02-19T13:53:45.024Z,82.90
2019-02-19T13:56:15.570Z,82.90
2019-02-19T13:58:46.116Z,82.80
2019-02-19T14:01:16.693Z,82.80
2019-02-19T14:04:05.821Z,82.80
2019-02-19T14:06:36.338Z,82.60
2019-02-19T14:09:06.925Z,82.70
2019-02-19T14:11:38.905Z,82.80
2019-02-19T14:14:28.380Z,83.20
2019-02-19T14:17:05.121Z,83.40
2019-02-19T14:19:45.476Z,83.50
2019-02-19T14:22:43.774Z,83.40
2019-02-19T14:25:31.783Z,83.50
2019-02-19T14:28:20.138Z,83.80
2019-02-19T14:31:07.149Z,83.90
2019-02-19T14:33:56.755Z,84.10
2019-02-19T14:36:44.589Z,84.20
2019-02-19T14:39:39.197Z,84.50
2019-02-19T14:42:27.249Z,84.40
2019-02-19T14:45:31.744Z,84.40
2019-02-19T14:48:16.288Z,84.40
2019-02-19T14:51:11.309Z,85.20
2019-02-19T14:54:06.836Z,84.80
2019-02-19T14:56:47.411Z,84.60
2019-02-19T14:59:51.718Z,84.60
2019-02-19T15:02:41.138Z,84.50
2019-02-19T15:05:30.517Z,84.50
2019-02-19T15:08:20.142Z,84.40
2019-02-19T15:11:24.468Z,84.50
2019-02-19T15:14:14.408Z,84.50
2019-02-19T15:17:19.220Z,84.60
2019-02-19T15:20:07.226Z,84.60
2019-02-19T15:22:48.279Z,84.60
2019-02-19T15:25:36.479Z,84.80
2019-02-19T15:28:14.429Z,84.80
2019-02-19T15:31:03.877Z,84.80
2019-02-19T15:33:42.322Z,84.90
2019-02-19T15:36:37.802Z,84.90
2019-02-19T15:39:26.038Z,84.80
2019-02-19T15:42:21.307Z,84.90
2019-02-19T15:45:09.670Z,85.00
2019-02-19T15:47:59.122Z,85.10
2019-02-19T15:50:47.447Z,85.80
2019-02-19T15:53:46.011Z,85.20
2019-02-19T15:56:38.329Z,85.20
2019-02-19T15:59:33.758Z,85.10
2019-02-19T16:02:26.226Z,85.20
2019-02-19T16:05:30.650Z,85.20
2019-02-19T16:08:31.832Z,85.20
2019-02-19T16:11:36.656Z,85.30
2019-02-19T16:14:26.068Z,85.20
2019-02-19T16:17:21.412Z,85.20
2019-02-19T16:20:00.158Z,85.20
2019-02-19T16:22:55.538Z,85.20
2019-02-19T16:25:43.740Z,85.00
2019-02-19T16:28:33.158Z,85.00
2019-02-19T16:31:20.910Z,84.90
2019-02-19T16:33:58.247Z,85.00
2019-02-19T16:37:02.598Z,85.00
2019-02-19T16:39:44.576Z,85.70
2019-02-19T16:42:32.324Z,87.00
2019-02-19T16:45:21.760Z,87.20
2019-02-19T16:48:10.549Z,87.10
2019-02-19T16:50:58.844Z,87.30
2019-02-19T16:53:48.249Z,87.50
2019-02-19T16:56:25.583Z,87.50
2019-02-19T16:59:13.792Z,87.80
2019-02-19T17:02:05.847Z,88.00
2019-02-19T17:04:46.806Z,88.40
2019-02-19T17:07:28.237Z,89.00
2019-02-19T17:10:20.703Z,88.70
2019-02-19T17:12:58.256Z,89.00
2019-02-19T17:16:00.499Z,88.90
2019-02-19T17:18:57.249Z,89.40
2019-02-19T17:21:46.656Z,89.40
2019-02-19T17:24:54.406Z,89.40
2019-02-19T17:27:33.150Z,89.20
2019-02-19T17:30:23.543Z,89.50
2019-02-19T17:33:02.165Z,89.70
2019-02-19T17:35:54.348Z,89.80
2019-02-19T17:38:52.685Z,90.00
2019-02-19T17:41:44.740Z,89.80
2019-02-19T17:44:25.893Z,89.60
2019-02-19T17:47:14.991Z,89.70
2019-02-19T17:49:55.036Z,89.50
2019-02-19T17:52:56.824Z,89.80
2019-02-19T17:56:01.189Z,89.70
2019-02-19T17:58:45.607Z,89.70
2019-02-19T18:01:25.834Z,89.70
2019-02-19T18:04:27.521Z,89.80
2019-02-19T18:07:15.933Z,89.80
2019-02-19T18:10:01.530Z,90.00
2019-02-19T18:13:00.086Z,89.70
2019-02-19T18:15:48.068Z,89.50
2019-02-19T18:18:47.164Z,89.20
2019-02-19T18:21:18.917Z,89.30
2019-02-19T18:23:50.442Z,89.10
2019-02-19T18:26:21.053Z,89.00
2019-02-19T18:28:51.605Z,88.90
2019-02-19T18:31:22.182Z,88.80
2019-02-19T18:33:52.677Z,88.60
2019-02-19T18:36:23.321Z,88.70
2019-02-19T18:38:53.833Z,88.70
2019-02-19T18:41:24.456Z,88.90
2019-02-19T18:43:55.061Z,88.90
2019-02-19T18:46:25.608Z,89.00
2019-02-19T18:48:56.275Z,89.10
2019-02-19T18:51:26.815Z,89.10
2019-02-19T18:53:57.523Z,89.10
2019-02-19T18:56:28.118Z,89.40
2019-02-19T18:58:58.662Z,89.50
2019-02-19T19:01:29.534Z,90.40
2019-02-19T19:04:00.039Z,91.50
2019-02-19T19:06:30.675Z,91.20
2019-02-19T19:09:01.222Z,91.20
2019-02-19T19:11:33.716Z,92.00
2019-02-19T19:14:06.789Z,91.80
2019-02-19T19:16:37.921Z,92.00
2019-02-19T19:19:08.464Z,91.50
2019-02-19T19:21:39.660Z,91.30
2019-02-19T19:24:10.757Z,91.40
2019-02-19T19:26:41.701Z,90.80
2019-02-19T19:29:12.629Z,91.10
2019-02-19T19:31:44.520Z,91.50
2019-02-19T19:34:15.126Z,91.20
2019-02-19T19:36:45.786Z,91.10
2019-02-19T19:39:16.293Z,91.30
2019-02-19T19:41:46.915Z,90.80
2019-02-19T19:44:17.528Z,90.40
2019-02-19T19:46:48.506Z,90.10
2019-02-19T19:49:19.045Z,90.40
2019-02-19T19:51:49.659Z,90.40
2019-02-19T19:54:20.607Z,90.60
2019-02-19T19:56:51.253Z,90.20
2019-02-19T19:59:22.074Z,90.10
2019-02-19T20:01:52.649Z,89.60
2019-02-19T20:04:23.245Z,90.20
2019-02-19T20:06:54.200Z,90.00
2019-02-19T20:09:24.957Z,89.70
2019-02-19T20:11:55.478Z,90.00
2019-02-19T20:14:26.380Z,89.90
2019-02-19T20:16:56.930Z,90.00
2019-02-19T20:19:27.641Z,90.00
2019-02-19T20:21:58.708Z,89.70
2019-02-19T20:24:29.316Z,89.20
2019-02-19T20:26:59.944Z,89.20
2019-02-19T20:29:30.687Z,89.10
2019-02-19T20:32:01.282Z,89.70
2019-02-19T20:34:32.968Z,89.50
2019-02-19T20:37:04.440Z,89.60
2019-02-19T20:39:35.066Z,89.60
2019-02-19T20:42:05.754Z,90.00
2019-02-19T20:44:36.432Z,89.70
2019-02-19T20:47:06.989Z,89.80
2019-02-19T20:49:37.552Z,89.70
2019-02-19T20:52:08.070Z,89.40
2019-02-19T20:54:38.683Z,89.40
2019-02-19T20:57:09.716Z,89.70
2019-02-19T20:59:40.638Z,89.50
2019-02-19T21:02:11.270Z,89.40
2019-02-19T21:04:41.842Z,89.50
2019-02-19T21:07:12.461Z,89.20
2019-02-19T21:09:44.209Z,89.60
2019-02-19T21:12:16.428Z,89.50
2019-02-19T21:14:47.612Z,89.70
2019-02-19T21:17:18.471Z,89.80
2019-02-19T21:19:49.628Z,89.80
2019-02-19T21:22:20.553Z,89.90
2019-02-19T21:24:51.462Z,90.00
2019-02-19T21:27:22.544Z,89.80
2019-02-19T21:29:53.769Z,89.70
2019-02-19T21:32:24.834Z,89.80
2019-02-19T21:34:55.836Z,90.00
2019-02-19T21:37:26.977Z,90.00
2019-02-19T21:39:57.734Z,90.00
2019-02-19T21:42:28.804Z,90.00
2019-02-19T21:44:59.821Z,90.00
2019-02-19T21:47:30.801Z,90.10
2019-02-19T21:50:01.790Z,90.00
2019-02-19T21:52:33.164Z,90.10
2019-02-19T21:55:04.683Z,90.20
2019-02-19T21:57:36.776Z,90.30
2019-02-19T22:00:08.458Z,90.20
2019-02-19T22:02:41.029Z,90.10
2019-02-19T22:05:12.049Z,90.00
2019-02-19T22:07:43.098Z,90.00
2019-02-19T22:10:14.137Z,90.00
2019-02-19T22:12:45.191Z,90.10
2019-02-19T22:15:16.121Z,89.90
2019-02-19T22:17:47.064Z,90.30
2019-02-19T22:20:36.368Z,89.80
2019-02-19T22:23:07.784Z,90.00
2019-02-19T22:25:38.747Z,90.20
2019-02-19T22:28:09.662Z,90.20
2019-02-19T22:30:40.689Z,90.30
2019-02-19T22:33:11.996Z,90.30
2019-02-19T22:35:42.490Z,90.30
2019-02-19T22:38:13.642Z,90.40
2019-02-19T22:40:44.700Z,90.40
2019-02-19T22:43:15.352Z,90.80
2019-02-19T22:45:45.928Z,90.40
2019-02-19T22:48:16.997Z,90.50
2019-02-19T22:50:48.109Z,90.50
2019-02-19T22:53:36.721Z,90.40
2019-02-19T22:56:23.594Z,90.40
2019-02-19T22:58:54.537Z,90.30
2019-02-19T23:01:35.083Z,90.40
2019-02-19T23:04:06.249Z,90.30
2019-02-19T23:06:37.274Z,90.50
2019-02-19T23:09:08.506Z,90.50
2019-02-19T23:11:39.883Z,90.40
2019-02-19T23:14:11.948Z,90.40
2019-02-19T23:16:43.002Z,90.30
2019-02-19T23:19:14.018Z,90.20
2019-02-19T23:21:46.197Z,90.20
2019-02-19T23:24:17.136Z,90.20
2019-02-19T23:26:48.084Z,90.10
2019-02-19T23:29:19.020Z,90.10
2019-02-19T23:31:50.049Z,90.10
2019-02-19T23:34:21.116Z,90.10
2019-02-19T23:36:58.120Z,90.10
2019-02-19T23:39:29.016Z,90.50
2019-02-19T23:41:59.948Z,90.10
2019-02-19T23:44:31.049Z,90.10
2019-02-19T23:47:01.950Z,90.00
2019-02-19T23:49:32.995Z,90.00
2019-02-19T23:52:04.123Z,89.80
2019-02-19T23:54:34.976Z,90.20
2019-02-19T23:57:06.008Z,90.00
2019-02-19T23:59:37.060Z,90.10
